Time;durP1;ratioP1;P1;durP2;ratioP2;P2;SDS_P1;SDS_P2;PMS_P1;PMS_P2;Temp;Humidity;BMP_temperature;BMP_pressure;BME280_temperature;BME280_humidity;BME280_pressure;Samples;Min_cycle;Max_cycle;Signal;HPM_P1;HPM_P2
2024/01/23 00:00:25;;;;;;;15.10;1.70;;;;;;;;;;6244307;22;20070;-42
2024/01/23 00:02:53;;;;;;;21.33;1.70;;;;;;;;;;6237361;22;20027;-42
2024/01/23 00:05:21;;;;;;;16.75;1.70;;;;;;;;;;6239663;22;20841;-43
2024/01/23 00:07:49;;;;;;;18.13;2.25;;;;;;;;;;6246280;22;20299;-42
2024/01/23 00:10:19;;;;;;;20.45;2.03;;;;;;;;;;6244998;22;20030;-42
2024/01/23 00:12:47;;;;;;;19.33;1.83;;;;;;;;;;6248570;22;20015;-42
2024/01/23 00:15:18;;;;;;;13.13;1.95;;;;;;;;;;6241106;22;20126;-42
2024/01/23 00:17:46;;;;;;;13.60;1.63;;;;;;;;;;6225351;22;20087;-42
2024/01/23 00:20:14;;;;;;;17.67;1.40;;;;;;;;;;6246348;22;20643;-42
2024/01/23 00:22:41;;;;;;;19.88;1.33;;;;;;;;;;6229588;22;20418;-43
2024/01/23 00:25:09;;;;;;;13.37;1.33;;;;;;;;;;6237171;22;20027;-42
2024/01/23 00:27:37;;;;;;;12.93;1.50;;;;;;;;;;6216849;22;20065;-42
2024/01/23 00:30:07;;;;;;;22.00;1.80;;;;;;;;;;6219259;22;20015;-43
2024/01/23 00:32:36;;;;;;;17.73;1.55;;;;;;;;;;6231469;22;20383;-42
2024/01/23 00:35:04;;;;;;;11.50;1.75;;;;;;;;;;6247073;22;20016;-42
2024/01/23 00:37:32;;;;;;;20.27;2.27;;;;;;;;;;6233495;22;20011;-43
2024/01/23 00:40:01;;;;;;;17.20;1.63;;;;;;;;;;6247200;22;20016;-42
2024/01/23 00:42:30;;;;;;;21.42;2.13;;;;;;;;;;6236520;22;20012;-42
2024/01/23 00:44:58;;;;;;;14.10;1.83;;;;;;;;;;6241008;22;20069;-43
2024/01/23 00:47:25;;;;;;;25.90;2.92;;;;;;;;;;6241429;22;20288;-42
2024/01/23 00:49:55;;;;;;;27.43;2.00;;;;;;;;;;6238131;22;20063;-44
2024/01/23 00:52:23;;;;;;;24.13;2.33;;;;;;;;;;6236088;22;20016;-42
2024/01/23 00:54:50;;;;;;;18.00;2.20;;;;;;;;;;6236084;22;20095;-43
2024/01/23 00:57:18;;;;;;;21.60;2.03;;;;;;;;;;6241539;22;20099;-43
2024/01/23 00:59:46;;;;;;;19.70;2.15;;;;;;;;;;6238851;22;20598;-43
2024/01/23 01:02:14;;;;;;;15.97;2.67;;;;;;;;;;6231580;22;20023;-42
2024/01/23 01:04:46;;;;;;;22.73;2.25;;;;;;;;;;6241246;22;20035;-42
2024/01/23 01:07:20;;;;;;;20.52;1.88;;;;;;;;;;6235278;22;20054;-42
2024/01/23 01:09:48;;;;;;;19.65;2.30;;;;;;;;;;6240958;22;20023;-42
2024/01/23 01:12:15;;;;;;;20.85;2.58;;;;;;;;;;6237378;22;20020;-43
2024/01/23 01:14:45;;;;;;;20.70;1.80;;;;;;;;;;6236510;22;20537;-42
2024/01/23 01:17:12;;;;;;;19.90;2.30;;;;;;;;;;6232569;22;20494;-41
2024/01/23 01:19:40;;;;;;;17.00;1.40;;;;;;;;;;6240825;22;20020;-42
2024/01/23 01:22:08;;;;;;;24.42;2.70;;;;;;;;;;6240783;22;20051;-42
2024/01/23 01:24:37;;;;;;;19.38;1.98;;;;;;;;;;6204801;22;20047;-42
2024/01/23 01:27:05;;;;;;;14.10;1.67;;;;;;;;;;6222629;22;20045;-43
2024/01/23 01:29:50;;;;;;;24.40;2.50;;;;;;;;;;6218262;22;20023;-42
2024/01/23 01:32:18;;;;;;;14.85;2.00;;;;;;;;;;6229369;22;20485;-42
2024/01/23 01:34:46;;;;;;;17.73;1.80;;;;;;;;;;6214820;22;20011;-42
2024/01/23 01:37:14;;;;;;;23.83;1.65;;;;;;;;;;6235959;22;20497;-43
2024/01/23 01:39:43;;;;;;;15.23;2.17;;;;;;;;;;6238816;22;20442;-42
2024/01/23 01:42:11;;;;;;;13.18;1.73;;;;;;;;;;6239479;22;20024;-42
2024/01/23 01:44:39;;;;;;;15.80;1.83;;;;;;;;;;6240756;22;20046;-42
2024/01/23 01:47:08;;;;;;;15.02;1.35;;;;;;;;;;6241508;22;20048;-43
2024/01/23 01:49:36;;;;;;;21.35;1.90;;;;;;;;;;6249148;22;20020;-42
2024/01/23 01:52:04;;;;;;;21.13;2.20;;;;;;;;;;6237237;22;20572;-41
2024/01/23 01:54:32;;;;;;;18.73;1.67;;;;;;;;;;6216882;22;20363;-42
2024/01/23 01:57:01;;;;;;;20.83;1.65;;;;;;;;;;6235116;22;20038;-42
2024/01/23 01:59:34;;;;;;;22.55;2.53;;;;;;;;;;6237729;22;20015;-42
2024/01/23 02:02:04;;;;;;;17.98;1.52;;;;;;;;;;6242118;22;20033;-45
2024/01/23 02:04:32;;;;;;;13.70;2.00;;;;;;;;;;6245818;22;20576;-42
2024/01/23 02:07:02;;;;;;;17.38;1.77;;;;;;;;;;6208995;22;20366;-42
2024/01/23 02:09:31;;;;;;;16.10;2.08;;;;;;;;;;6249969;22;20023;-42
2024/01/23 02:12:00;;;;;;;21.50;2.17;;;;;;;;;;6240241;22;20069;-42
2024/01/23 02:14:29;;;;;;;15.82;1.90;;;;;;;;;;6234193;22;20020;-42
2024/01/23 02:16:57;;;;;;;22.23;2.03;;;;;;;;;;6230108;22;20015;-42
2024/01/23 02:19:26;;;;;;;19.25;1.80;;;;;;;;;;6245987;22;20019;-42
2024/01/23 02:21:54;;;;;;;20.65;2.13;;;;;;;;;;6231660;22;20023;-42
2024/01/23 02:24:23;;;;;;;14.82;1.92;;;;;;;;;;6214012;22;20093;-44
2024/01/23 02:26:50;;;;;;;19.50;2.60;;;;;;;;;;6206586;22;20078;-47
2024/01/23 02:29:18;;;;;;;18.00;2.17;;;;;;;;;;6219183;22;20082;-43
2024/01/23 02:31:46;;;;;;;15.00;1.90;;;;;;;;;;6237157;22;20026;-44
2024/01/23 02:34:14;;;;;;;15.45;1.40;;;;;;;;;;6243229;22;20020;-44
2024/01/23 02:36:44;;;;;;;14.15;1.60;;;;;;;;;;6237102;22;20107;-43
2024/01/23 02:39:11;;;;;;;16.90;2.03;;;;;;;;;;6237862;22;20019;-43
2024/01/23 02:41:40;;;;;;;19.40;2.23;;;;;;;;;;6212072;22;20458;-42
2024/01/23 02:44:08;;;;;;;32.88;2.25;;;;;;;;;;6238140;22;20020;-43
2024/01/23 02:46:36;;;;;;;16.60;1.55;;;;;;;;;;6243202;22;20020;-43
2024/01/23 02:49:04;;;;;;;18.55;2.33;;;;;;;;;;6236687;22;20020;-42
2024/01/23 02:54:17;;;;;;;15.63;1.60;;;;;;;;;;6241553;22;20026;-43
2024/01/23 02:56:46;;;;;;;20.63;2.05;;;;;;;;;;6242473;22;20023;-44
2024/01/23 02:59:16;;;;;;;15.85;2.20;;;;;;;;;;6239766;22;20016;-42
2024/01/23 03:01:44;;;;;;;21.33;1.73;;;;;;;;;;6209954;22;21054;-43
2024/01/23 03:04:11;;;;;;;22.13;2.88;;;;;;;;;;6222484;22;20023;-42
2024/01/23 03:06:39;;;;;;;15.97;2.57;;;;;;;;;;6240582;22;20046;-42
2024/01/23 03:09:10;;;;;;;15.63;1.75;;;;;;;;;;6246509;22;20526;-42
2024/01/23 03:11:38;;;;;;;20.77;2.33;;;;;;;;;;6229259;22;20528;-42
2024/01/23 03:14:07;;;;;;;22.02;2.00;;;;;;;;;;6254718;22;20016;-43
2024/01/23 03:16:35;;;;;;;19.27;1.75;;;;;;;;;;6234396;22;20474;-44
2024/01/23 03:19:03;;;;;;;27.87;1.67;;;;;;;;;;6246161;22;20027;-42
2024/01/23 03:21:31;;;;;;;19.50;3.05;;;;;;;;;;6228051;22;20016;-42
2024/01/23 03:23:59;;;;;;;19.02;2.47;;;;;;;;;;6249228;22;20073;-42
2024/01/23 03:26:27;;;;;;;15.48;2.13;;;;;;;;;;6236267;22;20020;-42
2024/01/23 03:28:54;;;;;;;22.20;2.50;;;;;;;;;;6193052;22;20015;-42
2024/01/23 03:31:23;;;;;;;16.57;2.27;;;;;;;;;;6242194;22;20023;-42
2024/01/23 03:33:51;;;;;;;23.17;1.67;;;;;;;;;;6249290;22;20485;-41
2024/01/23 03:36:19;;;;;;;17.10;1.67;;;;;;;;;;6243866;22;20111;-43
2024/01/23 03:38:47;;;;;;;20.45;1.70;;;;;;;;;;6244984;22;20022;-42
2024/01/23 03:41:15;;;;;;;15.90;2.00;;;;;;;;;;6226873;22;20016;-42
2024/01/23 03:43:47;;;;;;;19.33;1.80;;;;;;;;;;6236597;22;20054;-42
2024/01/23 03:46:15;;;;;;;18.85;1.52;;;;;;;;;;6242670;22;20469;-43
2024/01/23 03:48:44;;;;;;;18.48;1.52;;;;;;;;;;6245178;22;20027;-42
2024/01/23 03:51:15;;;;;;;12.77;1.45;;;;;;;;;;6244752;22;20015;-43
2024/01/23 03:53:43;;;;;;;19.17;2.00;;;;;;;;;;6254179;22;20024;-41
2024/01/23 03:56:11;;;;;;;18.90;2.07;;;;;;;;;;6248403;22;20346;-42
2024/01/23 03:58:39;;;;;;;13.55;1.67;;;;;;;;;;6226401;22;20078;-42
2024/01/23 04:01:07;;;;;;;20.00;1.63;;;;;;;;;;6240160;22;20016;-41
2024/01/23 04:03:35;;;;;;;17.23;1.80;;;;;;;;;;6250426;22;20039;-42
2024/01/23 04:06:04;;;;;;;23.15;1.60;;;;;;;;;;6235030;22;20325;-42
2024/01/23 04:08:32;;;;;;;19.83;2.40;;;;;;;;;;6244714;22;20019;-42
2024/01/23 04:10:59;;;;;;;17.60;1.80;;;;;;;;;;6240466;22;20015;-42
2024/01/23 04:13:27;;;;;;;16.48;1.83;;;;;;;;;;6251004;22;20016;-42
2024/01/23 04:15:55;;;;;;;19.00;1.65;;;;;;;;;;6246882;22;20027;-43
2024/01/23 04:18:23;;;;;;;23.83;2.25;;;;;;;;;;6243718;22;20019;-42
2024/01/23 04:20:51;;;;;;;15.23;1.43;;;;;;;;;;6244679;22;20095;-42
2024/01/23 04:23:22;;;;;;;22.42;2.00;;;;;;;;;;6242305;22;20024;-42
2024/01/23 04:25:50;;;;;;;29.10;2.75;;;;;;;;;;6245354;22;20031;-42
2024/01/23 04:28:18;;;;;;;22.58;2.45;;;;;;;;;;6194618;22;20016;-42
2024/01/23 04:30:46;;;;;;;20.80;1.67;;;;;;;;;;6216303;22;20397;-42
2024/01/23 04:33:13;;;;;;;13.93;1.70;;;;;;;;;;6237793;22;20429;-43
2024/01/23 04:35:41;;;;;;;20.58;1.67;;;;;;;;;;6238346;22;20023;-43
2024/01/23 04:38:09;;;;;;;27.63;2.17;;;;;;;;;;6251076;22;20050;-42
2024/01/23 04:40:39;;;;;;;20.38;2.33;;;;;;;;;;6246225;22;20011;-42
2024/01/23 04:43:06;;;;;;;25.30;2.42;;;;;;;;;;6230015;22;20020;-42
2024/01/23 04:45:34;;;;;;;19.97;2.50;;;;;;;;;;6247743;22;20019;-41
2024/01/23 04:48:02;;;;;;;22.42;2.75;;;;;;;;;;6238875;22;20025;-42
2024/01/23 04:50:29;;;;;;;18.90;2.97;;;;;;;;;;6250422;22;20286;-42
2024/01/23 04:52:57;;;;;;;21.17;2.58;;;;;;;;;;6241601;22;20023;-42
2024/01/23 04:55:25;;;;;;;23.15;2.03;;;;;;;;;;6216943;22;20138;-42
2024/01/23 04:57:55;;;;;;;22.37;1.83;;;;;;;;;;6251250;22;20083;-41
2024/01/23 05:00:23;;;;;;;25.15;2.42;;;;;;;;;;6240564;22;20015;-42
2024/01/23 05:02:51;;;;;;;22.42;2.30;;;;;;;;;;6246473;22;20024;-42
2024/01/23 05:05:20;;;;;;;17.10;1.70;;;;;;;;;;6237518;22;20386;-42
2024/01/23 05:07:48;;;;;;;22.83;2.35;;;;;;;;;;6219673;22;20387;-42
2024/01/23 05:10:16;;;;;;;22.40;2.67;;;;;;;;;;6248632;22;20019;-41
2024/01/23 05:12:43;;;;;;;22.85;2.10;;;;;;;;;;6242011;22;20442;-42
2024/01/23 05:15:12;;;;;;;18.85;1.60;;;;;;;;;;6245932;22;20015;-42
2024/01/23 05:17:40;;;;;;;21.83;2.03;;;;;;;;;;6244337;22;20820;-41
2024/01/23 05:20:08;;;;;;;20.52;1.80;;;;;;;;;;6256327;22;20030;-41
2024/01/23 05:22:37;;;;;;;22.87;3.03;;;;;;;;;;6244127;22;20030;-42
2024/01/23 05:25:05;;;;;;;23.60;2.28;;;;;;;;;;6212473;22;20019;-42
2024/01/23 05:27:33;;;;;;;21.35;2.55;;;;;;;;;;6189887;22;20043;-42
2024/01/23 05:30:03;;;;;;;27.15;2.00;;;;;;;;;;6215202;22;20451;-42
2024/01/23 05:32:32;;;;;;;22.45;1.90;;;;;;;;;;6244626;22;20029;-43
2024/01/23 05:35:03;;;;;;;22.47;2.83;;;;;;;;;;6239380;22;20015;-42
2024/01/23 05:37:31;;;;;;;20.38;1.98;;;;;;;;;;6250659;22;20047;-42
2024/01/23 05:40:03;;;;;;;21.83;2.20;;;;;;;;;;6247154;22;20071;-42
2024/01/23 05:42:32;;;;;;;21.33;2.88;;;;;;;;;;6237837;22;20446;-42
2024/01/23 05:45:00;;;;;;;23.95;1.98;;;;;;;;;;6250196;22;20015;-42
2024/01/23 05:47:28;;;;;;;22.73;2.43;;;;;;;;;;6237520;22;20016;-43
2024/01/23 05:49:57;;;;;;;23.85;1.67;;;;;;;;;;6229553;22;20036;-42
2024/01/23 05:52:25;;;;;;;22.23;2.28;;;;;;;;;;6235259;22;20027;-42
2024/01/23 05:54:53;;;;;;;19.58;1.80;;;;;;;;;;6210068;22;20422;-42
2024/01/23 05:57:19;;;;;;;18.92;1.92;;;;;;;;;;6232817;22;20015;-45
2024/01/23 05:59:47;;;;;;;23.30;1.90;;;;;;;;;;6235883;22;20016;-42
2024/01/23 06:02:16;;;;;;;21.40;2.25;;;;;;;;;;6229776;22;20450;-44
2024/01/23 06:04:43;;;;;;;26.40;2.70;;;;;;;;;;6235673;22;20035;-43
2024/01/23 06:07:12;;;;;;;24.67;1.98;;;;;;;;;;6238643;22;20043;-43
2024/01/23 06:09:42;;;;;;;18.33;2.95;;;;;;;;;;6225468;22;20032;-44
2024/01/23 06:12:10;;;;;;;24.37;2.23;;;;;;;;;;6246067;22;20179;-44
2024/01/23 06:14:38;;;;;;;23.02;3.63;;;;;;;;;;6232755;22;20648;-44
2024/01/23 06:17:08;;;;;;;29.15;2.85;;;;;;;;;;6230868;22;20504;-44
2024/01/23 06:19:36;;;;;;;19.45;2.50;;;;;;;;;;6233057;22;20016;-42
2024/01/23 06:22:05;;;;;;;21.80;2.40;;;;;;;;;;6232749;22;20442;-43
2024/01/23 06:24:34;;;;;;;24.13;3.00;;;;;;;;;;6206350;22;20508;-42
2024/01/23 06:27:02;;;;;;;28.05;3.40;;;;;;;;;;6203716;22;20432;-44
2024/01/23 06:29:33;;;;;;;30.05;1.90;;;;;;;;;;6206596;22;20494;-43
2024/01/23 06:32:00;;;;;;;25.98;3.50;;;;;;;;;;6225504;22;20019;-42
2024/01/23 06:34:29;;;;;;;21.90;2.88;;;;;;;;;;6236122;22;20012;-43
2024/01/23 06:36:57;;;;;;;17.83;2.20;;;;;;;;;;6233929;22;20118;-42
2024/01/23 06:39:27;;;;;;;26.92;2.60;;;;;;;;;;6235246;22;20619;-42
2024/01/23 06:41:56;;;;;;;15.02;2.17;;;;;;;;;;6248622;22;20015;-42
2024/01/23 06:44:24;;;;;;;18.92;1.95;;;;;;;;;;6238479;22;20465;-42
2024/01/23 06:46:52;;;;;;;27.60;3.33;;;;;;;;;;6228978;22;20015;-42
2024/01/23 06:49:19;;;;;;;17.97;2.70;;;;;;;;;;6214033;22;20019;-42
2024/01/23 06:52:08;;;;;;;19.95;2.30;;;;;;;;;;6235971;22;20016;-44
2024/01/23 06:54:35;;;;;;;22.45;2.60;;;;;;;;;;6234941;22;20565;-42
2024/01/23 06:57:06;;;;;;;26.17;2.20;;;;;;;;;;6234265;22;20030;-43
2024/01/23 06:59:34;;;;;;;23.23;1.80;;;;;;;;;;6243077;22;20062;-42
2024/01/23 07:02:04;;;;;;;23.03;1.80;;;;;;;;;;6236941;22;20016;-44
2024/01/23 07:04:33;;;;;;;21.90;3.17;;;;;;;;;;6236159;22;20016;-42
2024/01/23 07:07:01;;;;;;;22.00;1.73;;;;;;;;;;6245179;22;20039;-42
2024/01/23 07:09:29;;;;;;;21.10;2.35;;;;;;;;;;6236006;22;20019;-44
2024/01/23 07:11:57;;;;;;;23.67;2.35;;;;;;;;;;6249432;22;20098;-42
2024/01/23 07:14:28;;;;;;;23.27;2.67;;;;;;;;;;6239503;22;20573;-42
2024/01/23 07:16:56;;;;;;;26.95;3.65;;;;;;;;;;6214179;22;20023;-42
2024/01/23 07:19:23;;;;;;;24.27;3.38;;;;;;;;;;6243205;22;20015;-43
2024/01/23 07:21:52;;;;;;;23.63;2.22;;;;;;;;;;6229976;22;20394;-42
2024/01/23 07:24:21;;;;;;;22.73;1.90;;;;;;;;;;6233070;22;20469;-44
2024/01/23 07:26:49;;;;;;;20.90;1.93;;;;;;;;;;6219242;22;20046;-42
2024/01/23 07:29:17;;;;;;;18.48;2.15;;;;;;;;;;6213513;22;20019;-42
2024/01/23 07:31:46;;;;;;;19.67;2.67;;;;;;;;;;6231529;22;20407;-42
2024/01/23 07:34:13;;;;;;;20.58;3.63;;;;;;;;;;6240821;22;20058;-43
2024/01/23 07:36:42;;;;;;;23.20;2.63;;;;;;;;;;6229511;22;20510;-43
2024/01/23 07:39:10;;;;;;;22.17;2.00;;;;;;;;;;6246877;22;20020;-42
2024/01/23 07:41:38;;;;;;;20.40;2.38;;;;;;;;;;6233874;22;20016;-43
2024/01/23 07:44:06;;;;;;;27.80;2.13;;;;;;;;;;6237515;22;20023;-42
2024/01/23 07:46:39;;;;;;;25.38;3.03;;;;;;;;;;6228566;22;20015;-42
2024/01/23 07:49:13;;;;;;;25.77;2.28;;;;;;;;;;6229717;22;20016;-43
2024/01/23 07:51:47;;;;;;;20.67;3.40;;;;;;;;;;6239233;22;20046;-42
2024/01/23 07:54:16;;;;;;;24.80;2.80;;;;;;;;;;6229963;22;20302;-42
2024/01/23 07:56:44;;;;;;;23.95;2.00;;;;;;;;;;6246316;22;20032;-44
2024/01/23 07:59:11;;;;;;;25.52;1.73;;;;;;;;;;6233363;22;20832;-43
2024/01/23 08:01:39;;;;;;;23.98;2.40;;;;;;;;;;6246424;22;20026;-44
2024/01/23 08:04:07;;;;;;;17.03;2.03;;;;;;;;;;6228957;22;20023;-42
2024/01/23 08:06:36;;;;;;;25.45;2.03;;;;;;;;;;6231477;22;20022;-42
2024/01/23 08:09:23;;;;;;;25.83;2.90;;;;;;;;;;6250735;22;20034;-42
2024/01/23 08:11:52;;;;;;;23.05;3.42;;;;;;;;;;6228737;22;20016;-42
2024/01/23 08:14:20;;;;;;;19.55;2.45;;;;;;;;;;6236420;22;20461;-42
2024/01/23 08:16:48;;;;;;;25.43;3.50;;;;;;;;;;6230919;22;20030;-42
2024/01/23 08:19:17;;;;;;;23.30;2.22;;;;;;;;;;6236762;22;20019;-42
2024/01/23 08:21:47;;;;;;;18.17;2.05;;;;;;;;;;6222489;22;20217;-42
2024/01/23 08:24:14;;;;;;;14.88;1.23;;;;;;;;;;6234600;22;20582;-42
2024/01/23 08:26:47;;;;;;;22.67;2.20;;;;;;;;;;6191194;22;20849;-43
2024/01/23 08:29:14;;;;;;;23.57;2.90;;;;;;;;;;6190869;22;20022;-42
2024/01/23 08:31:42;;;;;;;16.55;2.00;;;;;;;;;;6196287;22;20023;-44
2024/01/23 08:34:12;;;;;;;26.55;2.42;;;;;;;;;;6230442;22;20070;-42
2024/01/23 08:36:41;;;;;;;18.05;2.22;;;;;;;;;;6222546;22;20296;-42
2024/01/23 08:39:11;;;;;;;24.63;3.22;;;;;;;;;;6224677;22;20047;-42
2024/01/23 08:41:40;;;;;;;19.63;2.70;;;;;;;;;;6226396;22;20519;-44
2024/01/23 08:44:08;;;;;;;19.58;2.10;;;;;;;;;;6220917;22;20378;-42
2024/01/23 08:46:35;;;;;;;18.95;1.40;;;;;;;;;;6231156;22;20089;-42
2024/01/23 08:49:03;;;;;;;23.13;1.92;;;;;;;;;;6213005;22;20019;-42
2024/01/23 08:51:32;;;;;;;18.83;2.20;;;;;;;;;;6229068;22;20023;-42
2024/01/23 08:54:00;;;;;;;14.83;1.90;;;;;;;;;;6224735;22;20050;-42
2024/01/23 08:56:31;;;;;;;22.67;2.35;;;;;;;;;;6226062;22;20019;-42
2024/01/23 08:58:58;;;;;;;17.38;2.42;;;;;;;;;;6220555;22;20066;-43
2024/01/23 09:01:26;;;;;;;18.70;2.08;;;;;;;;;;6191983;22;20023;-42
2024/01/23 09:03:54;;;;;;;21.40;1.95;;;;;;;;;;6213431;22;20236;-42
2024/01/23 09:06:22;;;;;;;17.13;2.23;;;;;;;;;;6219061;22;20023;-43
2024/01/23 09:08:50;;;;;;;19.63;1.98;;;;;;;;;;6198990;22;20034;-42
2024/01/23 09:11:18;;;;;;;21.30;2.08;;;;;;;;;;6213874;22;20021;-42
2024/01/23 09:13:52;;;;;;;12.25;0.90;;;;;;;;;;6227414;22;20030;-42
2024/01/23 09:16:23;;;;;;;18.02;1.73;;;;;;;;;;6218554;22;20033;-43
2024/01/23 09:18:51;;;;;;;14.40;1.37;;;;;;;;;;6230797;22;20015;-43
2024/01/23 09:21:22;;;;;;;18.10;2.20;;;;;;;;;;6208915;22;20016;-42
2024/01/23 09:23:50;;;;;;;16.38;1.58;;;;;;;;;;6224655;22;20023;-42
2024/01/23 09:26:17;;;;;;;14.73;1.45;;;;;;;;;;6215086;22;20344;-42
2024/01/23 09:28:45;;;;;;;12.90;1.25;;;;;;;;;;6171576;22;20066;-42
2024/01/23 09:31:14;;;;;;;16.57;2.27;;;;;;;;;;6221626;22;20019;-43
2024/01/23 09:33:42;;;;;;;19.13;1.42;;;;;;;;;;6223078;22;20020;-42
2024/01/23 09:36:10;;;;;;;19.33;1.92;;;;;;;;;;6217678;22;20026;-42
2024/01/23 09:38:38;;;;;;;16.60;1.38;;;;;;;;;;6224844;22;20020;-43
2024/01/23 09:41:11;;;;;;;18.45;2.60;;;;;;;;;;6202897;22;20065;-42
2024/01/23 09:43:41;;;;;;;17.73;2.27;;;;;;;;;;6222784;22;20015;-43
2024/01/23 09:46:11;;;;;;;14.15;1.20;;;;;;;;;;6224697;22;20073;-43
2024/01/23 09:48:42;;;;;;;16.17;1.42;;;;;;;;;;6221350;22;20015;-42
2024/01/23 09:51:15;;;;;;;12.52;1.33;;;;;;;;;;6226921;22;20043;-43
2024/01/23 09:53:43;;;;;;;13.93;1.40;;;;;;;;;;6209508;22;20020;-43
2024/01/23 09:56:12;;;;;;;19.93;1.50;;;;;;;;;;6225441;22;20026;-44
2024/01/23 09:58:39;;;;;;;15.52;1.25;;;;;;;;;;6217040;22;20019;-44
2024/01/23 10:01:07;;;;;;;13.52;1.20;;;;;;;;;;6227335;22;20019;-42
2024/01/23 10:03:35;;;;;;;11.63;1.15;;;;;;;;;;6228195;22;20026;-42
2024/01/23 10:06:05;;;;;;;16.08;1.33;;;;;;;;;;6221294;22;20020;-46
2024/01/23 10:08:33;;;;;;;18.20;1.40;;;;;;;;;;6228720;22;20032;-42
2024/01/23 10:11:01;;;;;;;13.02;2.05;;;;;;;;;;6218979;22;20023;-42
2024/01/23 10:13:29;;;;;;;19.33;2.25;;;;;;;;;;6216337;22;20015;-43
2024/01/23 10:15:57;;;;;;;21.10;2.00;;;;;;;;;;6221434;22;20023;-42
2024/01/23 10:18:26;;;;;;;15.88;1.10;;;;;;;;;;6218019;22;20030;-43
2024/01/23 10:20:57;;;;;;;14.27;1.20;;;;;;;;;;6219137;22;20015;-44
2024/01/23 10:23:27;;;;;;;20.73;2.05;;;;;;;;;;6214078;22;20107;-43
2024/01/23 10:26:00;;;;;;;12.80;0.90;;;;;;;;;;6211820;22;20030;-43
2024/01/23 10:28:28;;;;;;;17.08;1.33;;;;;;;;;;6158003;22;20020;-44
2024/01/23 10:30:55;;;;;;;18.63;1.50;;;;;;;;;;6218931;22;20491;-43
2024/01/23 10:33:23;;;;;;;11.00;0.90;;;;;;;;;;6223362;22;20020;-42
2024/01/23 10:36:09;;;;;;;14.93;1.65;;;;;;;;;;6220994;22;20020;-42
2024/01/23 10:38:39;;;;;;;16.38;1.85;;;;;;;;;;6220491;22;20347;-42
2024/01/23 10:41:24;;;;;;;23.25;2.63;;;;;;;;;;6210056;22;20012;-42
2024/01/23 10:43:53;;;;;;;16.10;1.63;;;;;;;;;;6220751;22;20020;-42
2024/01/23 10:46:21;;;;;;;20.77;1.90;;;;;;;;;;6215181;22;20105;-42
2024/01/23 10:48:49;;;;;;;16.42;2.08;;;;;;;;;;6215454;22;20039;-42
2024/01/23 10:51:20;;;;;;;16.63;1.42;;;;;;;;;;6219438;22;20026;-44
2024/01/23 10:53:57;;;;;;;14.88;1.00;;;;;;;;;;6217755;22;20019;-42
2024/01/23 10:56:29;;;;;;;11.52;0.80;;;;;;;;;;6219711;22;20726;-43
2024/01/23 10:59:00;;;;;;;17.57;1.47;;;;;;;;;;6213027;22;20512;-43
2024/01/23 11:01:35;;;;;;;8.02;1.02;;;;;;;;;;6221013;22;20034;-42
2024/01/23 11:04:03;;;;;;;13.82;1.15;;;;;;;;;;6228752;22;20023;-43
2024/01/23 11:06:34;;;;;;;10.63;1.30;;;;;;;;;;6219924;22;20447;-42
2024/01/23 11:09:07;;;;;;;9.38;1.00;;;;;;;;;;6228892;22;20122;-43
2024/01/23 11:11:38;;;;;;;9.17;0.80;;;;;;;;;;6209223;22;20019;-42
2024/01/23 11:14:10;;;;;;;3.28;0.50;;;;;;;;;;6213209;22;20767;-43
2024/01/23 11:16:38;;;;;;;10.57;0.82;;;;;;;;;;6214868;22;20370;-44
2024/01/23 11:19:24;;;;;;;5.43;0.60;;;;;;;;;;6223990;22;20031;-43
2024/01/23 11:22:00;;;;;;;5.25;0.38;;;;;;;;;;6223282;22;20099;-44
2024/01/23 11:24:42;;;;;;;6.17;0.50;;;;;;;;;;6211384;22;20015;-43
2024/01/23 11:27:18;;;;;;;2.58;0.47;;;;;;;;;;6183333;22;20077;-43
2024/01/23 11:29:47;;;;;;;7.38;0.40;;;;;;;;;;6187070;22;20026;-43
2024/01/23 11:32:16;;;;;;;5.40;0.43;;;;;;;;;;6219548;22;20020;-43
2024/01/23 11:34:44;;;;;;;6.95;0.40;;;;;;;;;;6184213;22;20390;-42
2024/01/23 11:37:32;;;;;;;3.63;0.33;;;;;;;;;;6228205;22;20016;-43
2024/01/23 11:40:03;;;;;;;5.80;0.40;;;;;;;;;;6193433;22;20506;-42
2024/01/23 11:42:35;;;;;;;5.63;0.70;;;;;;;;;;6209681;22;20016;-42
2024/01/23 11:45:22;;;;;;;5.70;0.70;;;;;;;;;;6229990;22;20039;-43
2024/01/23 11:47:54;;;;;;;4.10;0.60;;;;;;;;;;6216689;22;20015;-42
2024/01/23 11:50:22;;;;;;;5.27;0.30;;;;;;;;;;6188814;22;20791;-42
2024/01/23 11:52:50;;;;;;;6.85;0.47;;;;;;;;;;6217237;22;20015;-42
2024/01/23 11:55:21;;;;;;;5.32;0.38;;;;;;;;;;6209786;22;20019;-42
2024/01/23 11:57:49;;;;;;;5.20;0.70;;;;;;;;;;6226677;22;20039;-43
2024/01/23 12:00:18;;;;;;;5.03;1.52;;;;;;;;;;6191580;22;20394;-42
2024/01/23 12:02:46;;;;;;;5.83;0.60;;;;;;;;;;6227977;22;20015;-43
2024/01/23 12:05:14;;;;;;;6.20;0.63;;;;;;;;;;6220204;22;20456;-43
2024/01/23 12:07:43;;;;;;;8.07;0.40;;;;;;;;;;6229625;22;20019;-44
2024/01/23 12:10:12;;;;;;;5.47;0.50;;;;;;;;;;6215155;22;20399;-42
2024/01/23 12:12:41;;;;;;;5.68;0.90;;;;;;;;;;6199374;22;20403;-43
2024/01/23 12:15:09;;;;;;;4.97;0.43;;;;;;;;;;6223993;22;20019;-44
2024/01/23 12:17:44;;;;;;;6.00;0.47;;;;;;;;;;6218407;22;20290;-45
2024/01/23 12:20:14;;;;;;;4.57;0.68;;;;;;;;;;6212719;22;20077;-42
2024/01/23 12:22:44;;;;;;;5.45;0.75;;;;;;;;;;6194379;22;20027;-43
2024/01/23 12:25:14;;;;;;;8.48;0.90;;;;;;;;;;6217999;22;20091;-42
2024/01/23 12:27:55;;;;;;;6.23;0.63;;;;;;;;;;6181797;22;20123;-42
2024/01/23 12:30:24;;;;;;;7.60;0.68;;;;;;;;;;6224188;22;20024;-43
2024/01/23 12:32:51;;;;;;;6.57;0.88;;;;;;;;;;6188043;22;20023;-43
2024/01/23 12:35:20;;;;;;;5.82;0.60;;;;;;;;;;6227649;22;20518;-43
2024/01/23 12:37:51;;;;;;;3.65;0.30;;;;;;;;;;6216818;22;20034;-42
2024/01/23 12:40:20;;;;;;;5.23;0.50;;;;;;;;;;6215350;22;20016;-43
2024/01/23 12:42:49;;;;;;;5.78;0.60;;;;;;;;;;6207275;22;20030;-42
2024/01/23 12:45:18;;;;;;;4.55;0.40;;;;;;;;;;6220977;22;20513;-43
2024/01/23 12:47:46;;;;;;;5.93;0.60;;;;;;;;;;6201273;22;20031;-44
2024/01/23 12:50:19;;;;;;;5.65;0.50;;;;;;;;;;6216559;22;20261;-42
2024/01/23 12:52:48;;;;;;;5.03;0.50;;;;;;;;;;6207976;22;20085;-43
2024/01/23 12:55:17;;;;;;;4.03;0.70;;;;;;;;;;6219691;22;20026;-42
2024/01/23 12:57:45;;;;;;;5.88;0.40;;;;;;;;;;6203963;22;20022;-44
2024/01/23 13:00:19;;;;;;;6.75;1.15;;;;;;;;;;6217711;22;20023;-43
2024/01/23 13:02:50;;;;;;;6.40;0.50;;;;;;;;;;6183699;22;20495;-45
2024/01/23 13:05:19;;;;;;;7.17;0.60;;;;;;;;;;6210545;22;20465;-42
2024/01/23 13:07:47;;;;;;;6.63;0.57;;;;;;;;;;6216023;22;20046;-44
2024/01/23 13:10:15;;;;;;;6.22;1.13;;;;;;;;;;6226896;22;20020;-43
2024/01/23 13:12:44;;;;;;;5.38;0.50;;;;;;;;;;6218611;22;20043;-45
2024/01/23 13:15:28;;;;;;;4.47;0.40;;;;;;;;;;6225876;22;20020;-44
2024/01/23 13:17:57;;;;;;;5.23;0.73;;;;;;;;;;6219038;22;20508;-44
2024/01/23 13:20:25;;;;;;;6.35;0.55;;;;;;;;;;6232341;22;20015;-46
2024/01/23 13:22:57;;;;;;;5.88;0.65;;;;;;;;;;6209386;22;20520;-45
2024/01/23 13:25:26;;;;;;;3.88;0.45;;;;;;;;;;6237190;22;20102;-44
2024/01/23 13:27:56;;;;;;;4.70;0.50;;;;;;;;;;6168609;22;20058;-44
2024/01/23 13:30:29;;;;;;;4.70;0.40;;;;;;;;;;6225402;22;20039;-45
2024/01/23 13:33:00;;;;;;;6.47;0.63;;;;;;;;;;6237051;22;20073;-43
2024/01/23 13:35:28;;;;;;;4.07;0.40;;;;;;;;;;6230514;22;20634;-45
2024/01/23 13:37:56;;;;;;;4.55;0.60;;;;;;;;;;6231701;22;20476;-43
2024/01/23 13:40:24;;;;;;;6.20;0.70;;;;;;;;;;6237663;22;20023;-44
2024/01/23 13:42:52;;;;;;;3.47;0.43;;;;;;;;;;6230487;22;20092;-45
2024/01/23 13:45:20;;;;;;;5.25;0.47;;;;;;;;;;6207761;22;20102;-43
2024/01/23 13:47:48;;;;;;;2.65;0.50;;;;;;;;;;6239786;22;20027;-44
2024/01/23 13:50:17;;;;;;;4.20;0.60;;;;;;;;;;6237959;22;20518;-42
2024/01/23 13:52:49;;;;;;;3.03;0.40;;;;;;;;;;6238195;22;20066;-43
2024/01/23 13:55:17;;;;;;;9.50;0.60;;;;;;;;;;6238142;22;20020;-43
2024/01/23 13:57:45;;;;;;;5.57;0.47;;;;;;;;;;6230578;22;20027;-43
2024/01/23 14:00:19;;;;;;;4.78;0.82;;;;;;;;;;6243274;22;20011;-43
2024/01/23 14:02:49;;;;;;;5.93;0.55;;;;;;;;;;6245359;22;20367;-43
2024/01/23 14:05:19;;;;;;;5.43;0.70;;;;;;;;;;6234848;22;20051;-46
2024/01/23 14:07:47;;;;;;;9.27;1.00;;;;;;;;;;6217195;22;20023;-47
2024/01/23 14:10:17;;;;;;;3.85;0.55;;;;;;;;;;6247083;22;20024;-43
2024/01/23 14:12:48;;;;;;;6.35;0.95;;;;;;;;;;6240970;22;20008;-43
2024/01/23 14:15:19;;;;;;;4.18;0.70;;;;;;;;;;6218457;22;20015;-47
2024/01/23 14:17:48;;;;;;;7.18;0.80;;;;;;;;;;6218139;22;20023;-44
2024/01/23 14:20:17;;;;;;;4.00;1.37;;;;;;;;;;6233780;22;20358;-43
2024/01/23 14:22:47;;;;;;;2.78;0.50;;;;;;;;;;6241757;22;20012;-43
2024/01/23 14:25:17;;;;;;;4.53;0.50;;;;;;;;;;6242393;22;20016;-42
2024/01/23 14:27:52;;;;;;;3.67;0.73;;;;;;;;;;6194177;22;20030;-43
2024/01/23 14:30:21;;;;;;;3.90;0.80;;;;;;;;;;6226650;22;20019;-42
2024/01/23 14:32:50;;;;;;;2.93;0.50;;;;;;;;;;6206186;22;20027;-43
2024/01/23 14:35:17;;;;;;;5.35;0.88;;;;;;;;;;6246388;22;20016;-43
2024/01/23 14:37:47;;;;;;;3.28;0.50;;;;;;;;;;6235303;22;20563;-42
2024/01/23 14:40:16;;;;;;;4.85;0.70;;;;;;;;;;6246766;22;20015;-42
2024/01/23 14:42:44;;;;;;;3.58;0.40;;;;;;;;;;6232832;22;20443;-42
2024/01/23 14:45:13;;;;;;;3.97;0.60;;;;;;;;;;6219611;22;20406;-42
2024/01/23 14:47:43;;;;;;;4.18;0.60;;;;;;;;;;6225109;22;20055;-42